createdAt,value
2022-08-23T00:01:36.737Z,10.00
2022-08-23T00:04:08.394Z,10.67
2022-08-23T00:06:35.921Z,9.57
2022-08-23T00:09:04.011Z,10.03
2022-08-23T00:11:36.318Z,9.27
2022-08-23T00:14:10.412Z,9.37
2022-08-23T00:16:38.442Z,9.63
2022-08-23T00:19:07.504Z,10.23
2022-08-23T00:21:36.509Z,10.27
2022-08-23T00:24:06.942Z,10.30
2022-08-23T00:26:49.659Z,10.83
2022-08-23T00:29:17.230Z,10.30
2022-08-23T00:31:44.408Z,10.03
2022-08-23T00:34:12.365Z,10.43
2022-08-23T00:36:39.950Z,10.90
2022-08-23T00:39:07.324Z,10.50
2022-08-23T00:41:35.521Z,11.10
2022-08-23T00:44:22.566Z,11.03
2022-08-23T00:47:24.797Z,10.87
2022-08-23T00:50:19.355Z,10.10
2022-08-23T00:53:12.678Z,10.93
2022-08-23T00:55:42.534Z,10.77
2022-08-23T00:58:09.813Z,10.67
2022-08-23T01:00:37.011Z,10.57
2022-08-23T01:03:07.733Z,10.33
2022-08-23T01:05:59.032Z,9.87
2022-08-23T01:08:29.580Z,10.63
2022-08-23T01:11:16.156Z,10.33
2022-08-23T01:14:11.651Z,10.07
2022-08-23T01:16:50.766Z,11.53
2022-08-23T01:19:30.489Z,11.63
2022-08-23T01:22:14.472Z,11.80
2022-08-23T01:25:07.111Z,12.00
2022-08-23T01:27:30.554Z,12.43
2022-08-23T01:29:59.332Z,14.00
2022-08-23T01:32:26.298Z,13.57
2022-08-23T01:34:53.270Z,14.23
2022-08-23T01:37:21.757Z,13.70
2022-08-23T01:39:48.758Z,13.77
2022-08-23T01:42:15.768Z,15.40
2022-08-23T01:44:42.877Z,14.10
2022-08-23T01:47:09.820Z,14.20
2022-08-23T01:49:36.802Z,15.00
2022-08-23T01:52:04.404Z,13.77
2022-08-23T01:54:31.364Z,14.97
2022-08-23T01:56:58.990Z,14.07
2022-08-23T01:59:26.462Z,13.73
2022-08-23T02:01:53.727Z,14.10
2022-08-23T02:04:22.387Z,14.57
2022-08-23T02:06:49.487Z,14.27
2022-08-23T02:09:17.838Z,15.07
2022-08-23T02:11:45.471Z,14.43
2022-08-23T02:14:15.779Z,15.20
2022-08-23T02:17:02.967Z,15.93
2022-08-23T02:19:34.328Z,15.83
2022-08-23T02:22:01.430Z,15.57
2022-08-23T02:24:28.798Z,14.87
2022-08-23T02:26:59.305Z,14.63
2022-08-23T02:29:29.680Z,15.43
2022-08-23T02:31:58.068Z,17.20
2022-08-23T02:34:25.475Z,16.07
2022-08-23T02:36:55.314Z,15.10
2022-08-23T02:39:22.534Z,14.73
2022-08-23T02:41:50.052Z,15.40
2022-08-23T02:44:17.090Z,15.27
2022-08-23T02:46:44.452Z,15.03
2022-08-23T02:49:12.161Z,14.13
2022-08-23T02:51:39.744Z,14.47
2022-08-23T02:54:07.213Z,14.67
2022-08-23T02:56:34.888Z,14.73
2022-08-23T02:59:02.446Z,13.43
2022-08-23T03:01:33.834Z,14.70
2022-08-23T03:04:02.767Z,13.80
2022-08-23T03:06:29.742Z,13.20
2022-08-23T03:08:57.721Z,13.37
2022-08-23T03:11:25.223Z,12.40
2022-08-23T03:13:54.025Z,14.27
2022-08-23T03:16:21.352Z,17.57
2022-08-23T03:18:49.550Z,13.50
2022-08-23T03:21:17.684Z,14.57
2022-08-23T03:23:45.614Z,15.13
2022-08-23T03:26:14.287Z,14.50
2022-08-23T03:28:44.099Z,14.93
2022-08-23T03:31:12.353Z,15.63
2022-08-23T03:33:40.132Z,14.57
2022-08-23T03:36:10.020Z,15.43
2022-08-23T03:38:39.478Z,15.20
2022-08-23T03:41:07.096Z,15.10
2022-08-23T03:43:35.152Z,14.37
2022-08-23T03:46:02.517Z,14.07
2022-08-23T03:48:29.600Z,15.20
2022-08-23T03:50:56.626Z,15.93
2022-08-23T03:53:24.372Z,16.33
2022-08-23T03:55:53.366Z,14.33
2022-08-23T03:58:21.647Z,15.83
2022-08-23T04:00:48.988Z,16.80
2022-08-23T04:03:16.209Z,15.53
2022-08-23T04:05:43.605Z,16.63
2022-08-23T04:08:11.586Z,16.50
2022-08-23T04:10:39.302Z,17.23
2022-08-23T04:13:09.137Z,15.63
2022-08-23T04:15:37.117Z,16.90
2022-08-23T04:18:05.025Z,16.30
2022-08-23T04:20:33.385Z,15.97
2022-08-23T04:23:00.637Z,15.43
2022-08-23T04:25:34.211Z,14.93
2022-08-23T04:28:03.529Z,15.23
2022-08-23T04:30:31.547Z,15.93
2022-08-23T04:32:58.572Z,14.67
2022-08-23T04:35:26.130Z,14.90
2022-08-23T04:37:54.031Z,14.30
2022-08-23T04:40:39.761Z,14.53
2022-08-23T04:43:08.708Z,15.23
2022-08-23T04:45:39.082Z,15.17
2022-08-23T04:48:06.705Z,14.93
2022-08-23T04:50:40.039Z,15.57
2022-08-23T04:53:07.710Z,15.40
2022-08-23T04:55:36.629Z,15.43
2022-08-23T04:58:04.874Z,16.07
2022-08-23T05:00:31.984Z,17.67
2022-08-23T05:02:59.026Z,14.53
2022-08-23T05:05:27.600Z,15.00
2022-08-23T05:07:55.584Z,15.20
2022-08-23T05:10:22.945Z,14.20
2022-08-23T05:12:50.053Z,13.20
2022-08-23T05:15:17.135Z,13.57
2022-08-23T05:17:44.321Z,14.33
2022-08-23T05:20:11.430Z,14.40
2022-08-23T05:22:40.976Z,12.87
2022-08-23T05:25:08.978Z,14.57
2022-08-23T05:27:36.382Z,13.00
2022-08-23T05:30:05.668Z,13.20
2022-08-23T05:32:33.744Z,12.73
2022-08-23T05:35:01.407Z,13.37
2022-08-23T05:37:28.511Z,12.97
2022-08-23T05:39:55.521Z,12.20
2022-08-23T05:42:24.570Z,14.33
2022-08-23T05:44:51.616Z,12.13
2022-08-23T05:47:24.793Z,12.67
2022-08-23T05:49:52.237Z,15.43
2022-08-23T05:52:19.226Z,12.00
2022-08-23T05:54:46.173Z,12.10
2022-08-23T05:57:13.281Z,12.03
2022-08-23T05:59:41.890Z,11.83
2022-08-23T06:02:09.465Z,10.10
2022-08-23T06:04:36.600Z,11.60
2022-08-23T06:07:03.863Z,10.20
2022-08-23T06:09:30.749Z,11.33
2022-08-23T06:11:59.251Z,10.83
2022-08-23T06:14:26.241Z,10.67
2022-08-23T06:16:55.972Z,11.07
2022-08-23T06:19:24.187Z,11.23
2022-08-23T06:21:52.250Z,10.80
2022-08-23T06:24:20.199Z,10.57
2022-08-23T06:26:47.991Z,10.83
2022-08-23T06:29:18.114Z,10.47
2022-08-23T06:31:50.056Z,10.10
2022-08-23T06:34:25.510Z,11.40
2022-08-23T06:36:56.157Z,11.13
2022-08-23T06:39:25.838Z,11.40
2022-08-23T06:41:57.026Z,10.30
2022-08-23T06:44:24.172Z,10.93
2022-08-23T06:46:51.167Z,14.43
2022-08-23T06:49:18.357Z,27.03
2022-08-23T06:51:49.850Z,9.97
2022-08-23T06:54:20.249Z,10.53
2022-08-23T06:56:49.362Z,9.60
2022-08-23T06:59:17.506Z,9.30
2022-08-23T07:01:51.282Z,10.23
2022-08-23T07:04:21.472Z,10.17
2022-08-23T07:06:48.694Z,9.87
2022-08-23T07:09:16.557Z,11.27
2022-08-23T07:11:43.698Z,8.93
2022-08-23T07:14:16.768Z,10.23
2022-08-23T07:16:51.379Z,8.87
2022-08-23T07:19:21.543Z,9.25
2022-08-23T07:21:51.381Z,9.23
2022-08-23T07:24:19.130Z,10.07
2022-08-23T07:26:48.266Z,9.48
2022-08-23T07:29:16.586Z,8.93
2022-08-23T07:31:46.608Z,9.07
2022-08-23T07:34:15.538Z,11.40
2022-08-23T07:36:44.560Z,9.90
2022-08-23T07:39:13.007Z,8.23
2022-08-23T07:41:41.593Z,9.25
2022-08-23T07:44:10.154Z,9.13
2022-08-23T07:46:40.376Z,8.95
2022-08-23T07:49:09.985Z,9.65
2022-08-23T07:51:38.702Z,9.20
2022-08-23T07:54:09.426Z,10.15
2022-08-23T07:56:37.038Z,9.27
2022-08-23T07:59:05.633Z,9.65
2022-08-23T08:01:33.633Z,9.52
2022-08-23T08:04:02.713Z,9.18
2022-08-23T08:06:34.229Z,11.15
2022-08-23T08:09:02.139Z,10.98
2022-08-23T08:11:35.078Z,8.80
2022-08-23T08:14:08.493Z,8.57
2022-08-23T08:16:40.668Z,9.18
2022-08-23T08:19:09.723Z,8.93
2022-08-23T08:21:38.683Z,10.45
2022-08-23T08:24:10.559Z,8.48
2022-08-23T08:26:37.889Z,10.18
2022-08-23T08:29:06.234Z,9.15
2022-08-23T08:31:34.482Z,10.40
2022-08-23T08:34:01.532Z,9.98
2022-08-23T08:36:36.271Z,9.55
2022-08-23T08:39:10.614Z,9.15
2022-08-23T08:41:38.065Z,9.88
2022-08-23T08:44:34.072Z,8.80
2022-08-23T08:47:06.902Z,10.57
2022-08-23T08:49:57.463Z,9.45
2022-08-23T08:52:32.777Z,9.77
2022-08-23T08:55:17.291Z,12.10
2022-08-23T08:57:46.563Z,10.57
2022-08-23T09:00:25.903Z,9.63
2022-08-23T09:02:54.468Z,9.73
2022-08-23T09:05:26.895Z,10.45
2022-08-23T09:08:31.290Z,10.93
2022-08-23T09:11:22.529Z,9.77
2022-08-23T09:13:56.365Z,9.65
2022-08-23T09:16:38.859Z,9.48
2022-08-23T09:19:06.783Z,9.75
2022-08-23T09:21:58.879Z,9.20
2022-08-23T09:24:45.906Z,9.55
2022-08-23T09:27:27.969Z,9.50
2022-08-23T09:30:01.258Z,9.50
2022-08-23T09:33:15.297Z,8.73
2022-08-23T09:36:04.749Z,9.00
2022-08-23T09:39:02.214Z,8.93
2022-08-23T09:41:33.765Z,9.93
2022-08-23T09:44:33.441Z,8.88
2022-08-23T09:47:17.208Z,12.70
2022-08-23T09:49:48.305Z,29.60
2022-08-23T09:52:38.338Z,9.48
2022-08-23T09:55:27.629Z,8.43
2022-08-23T09:58:32.358Z,9.35
2022-08-23T10:01:13.557Z,9.95
2022-08-23T10:04:14.566Z,14.13
2022-08-23T10:07:38.289Z,28.65
2022-08-23T10:10:16.611Z,13.90
2022-08-23T10:13:05.752Z,8.82
2022-08-23T10:15:59.195Z,8.63
2022-08-23T10:19:03.081Z,8.13
2022-08-23T10:22:12.265Z,8.10
2022-08-23T10:25:02.432Z,8.57
2022-08-23T10:28:16.447Z,8.80
2022-08-23T10:31:08.934Z,7.50
2022-08-23T10:33:54.993Z,8.02
2022-08-23T10:36:46.190Z,7.35
2022-08-23T10:39:27.752Z,6.53
2022-08-23T10:42:53.326Z,5.90
2022-08-23T10:45:33.964Z,6.50
2022-08-23T10:48:29.480Z,6.10
2022-08-23T10:51:00.854Z,7.03
2022-08-23T10:54:12.540Z,6.28
2022-08-23T10:56:54.397Z,7.10
2022-08-23T10:59:37.626Z,14.25
2022-08-23T11:02:11.950Z,9.68
2022-08-23T11:05:05.629Z,5.88
2022-08-23T11:07:41.252Z,5.15
2022-08-23T11:10:39.758Z,5.28
2022-08-23T11:13:27.581Z,5.43
2022-08-23T11:16:25.350Z,5.32
2022-08-23T11:19:15.638Z,6.15
2022-08-23T11:22:15.648Z,5.00
2022-08-23T11:25:01.862Z,4.93
2022-08-23T11:27:33.796Z,5.53
2022-08-23T11:30:33.076Z,5.47
2022-08-23T11:33:15.304Z,5.68
2022-08-23T11:36:37.217Z,26.30
2022-08-23T11:39:27.274Z,5.15
2022-08-23T11:41:54.225Z,6.75
2022-08-23T11:44:38.328Z,26.58
2022-08-23T11:47:38.488Z,11.73
2022-08-23T11:50:11.997Z,5.90
2022-08-23T11:53:27.208Z,5.20
2022-08-23T11:56:23.363Z,8.20
2022-08-23T11:59:19.397Z,5.85
2022-08-23T12:02:37.717Z,6.90
2022-08-23T12:05:45.458Z,5.55
2022-08-23T12:08:13.115Z,5.38
2022-08-23T12:10:42.934Z,6.28
2022-08-23T12:13:21.833Z,6.28
2022-08-23T12:16:18.658Z,13.55
2022-08-23T12:18:49.102Z,7.57
2022-08-23T12:21:39.008Z,6.07
2022-08-23T12:24:32.504Z,5.07
2022-08-23T12:27:17.696Z,5.32
2022-08-23T12:30:01.622Z,5.88
2022-08-23T12:33:09.848Z,5.55
2022-08-23T12:36:05.230Z,5.85
2022-08-23T12:39:19.584Z,6.20
2022-08-23T12:42:02.832Z,6.40
2022-08-23T12:45:20.883Z,5.82
2022-08-23T12:48:00.578Z,6.13
2022-08-23T12:51:01.063Z,6.07
2022-08-23T12:53:45.747Z,8.15
2022-08-23T12:56:49.052Z,7.13
2022-08-23T12:59:49.542Z,5.60
2022-08-23T13:02:34.786Z,5.68
2022-08-23T13:05:47.034Z,6.50
2022-08-23T13:09:08.992Z,5.90
2022-08-23T13:11:52.471Z,5.97
2022-08-23T13:14:30.962Z,6.50
2022-08-23T13:17:17.442Z,6.00
2022-08-23T13:20:02.147Z,6.03
2022-08-23T13:23:02.186Z,6.60
2022-08-23T13:25:35.986Z,5.97
2022-08-23T13:28:27.985Z,5.28
2022-08-23T13:31:48.418Z,6.30
2022-08-23T13:34:33.891Z,6.68
2022-08-23T13:37:03.317Z,6.32
2022-08-23T13:39:32.142Z,6.28
2022-08-23T13:42:26.448Z,5.68
2022-08-23T13:46:09.359Z,6.55
2022-08-23T13:48:37.606Z,6.05
2022-08-23T13:51:33.394Z,7.07
2022-08-23T13:54:03.973Z,7.20
2022-08-23T13:56:55.455Z,5.95
2022-08-23T13:59:47.290Z,7.00
2022-08-23T14:02:16.541Z,7.07
2022-08-23T14:05:09.560Z,7.72
2022-08-23T14:07:56.846Z,6.40
2022-08-23T14:10:46.519Z,7.22
2022-08-23T14:13:30.083Z,6.80
2022-08-23T14:16:34.160Z,7.63
2022-08-23T14:22:28.664Z,6.32
2022-08-23T14:25:12.424Z,7.15
2022-08-23T14:27:41.490Z,7.53
2022-08-23T14:30:48.414Z,7.13
2022-08-23T14:33:16.224Z,6.65
2022-08-23T14:35:43.994Z,8.30
2022-08-23T14:38:30.981Z,7.22
2022-08-23T14:41:32.769Z,6.57
2022-08-23T14:44:01.186Z,7.10
2022-08-23T14:46:28.623Z,7.28
2022-08-23T14:49:15.896Z,7.65
2022-08-23T14:52:04.432Z,6.80
2022-08-23T14:54:32.767Z,7.85
2022-08-23T14:57:14.581Z,6.65
2022-08-23T14:59:56.401Z,6.40
2022-08-23T15:02:45.170Z,7.47
2022-08-23T15:05:32.297Z,7.10
2022-08-23T15:07:59.482Z,7.47
2022-08-23T15:10:50.307Z,6.57
2022-08-23T15:13:49.292Z,7.18
2022-08-23T15:16:23.539Z,6.93
2022-08-23T15:19:06.555Z,6.57
2022-08-23T15:21:48.349Z,7.47
2022-08-23T15:24:35.403Z,6.65
2022-08-23T15:27:03.948Z,7.20
2022-08-23T15:29:45.881Z,6.30
2022-08-23T15:32:27.977Z,7.00
2022-08-23T15:35:15.254Z,6.88
2022-08-23T15:38:04.307Z,6.78
2022-08-23T15:40:46.247Z,8.02
2022-08-23T15:43:13.389Z,6.70
2022-08-23T15:46:22.187Z,7.70
2022-08-23T15:48:57.217Z,8.20
2022-08-23T15:51:25.065Z,8.45
2022-08-23T15:54:07.635Z,7.63
2022-08-23T15:56:54.699Z,7.25
2022-08-23T15:59:41.760Z,7.82
2022-08-23T16:02:08.934Z,7.47
2022-08-23T16:04:36.844Z,8.82
2022-08-23T16:07:44.567Z,7.50
2022-08-23T16:10:15.297Z,6.03
2022-08-23T16:12:42.254Z,6.60
2022-08-23T16:15:09.777Z,6.43
2022-08-23T16:17:38.442Z,6.25
2022-08-23T16:20:07.434Z,6.95
2022-08-23T16:22:34.397Z,6.10
2022-08-23T16:25:01.485Z,6.38
2022-08-23T16:27:28.589Z,5.60
2022-08-23T16:29:55.551Z,6.50
2022-08-23T16:32:22.856Z,5.65
2022-08-23T16:34:49.745Z,5.25
2022-08-23T16:37:16.679Z,6.50
2022-08-23T16:39:45.039Z,6.40
2022-08-23T16:42:12.010Z,6.40
2022-08-23T16:44:39.077Z,5.50
2022-08-23T16:47:09.754Z,5.63
2022-08-23T16:49:37.128Z,6.35
2022-08-23T16:52:04.418Z,5.82
2022-08-23T16:54:31.544Z,6.15
2022-08-23T16:56:58.447Z,5.88
2022-08-23T16:59:25.909Z,5.25
2022-08-23T17:01:58.434Z,5.63
2022-08-23T17:04:30.281Z,5.65
2022-08-23T17:06:59.611Z,5.95
2022-08-23T17:09:28.528Z,5.57
2022-08-23T17:11:58.096Z,5.90
2022-08-23T17:14:26.180Z,5.55
2022-08-23T17:16:53.330Z,6.07
2022-08-23T17:19:20.541Z,5.43
2022-08-23T17:21:47.902Z,7.10
2022-08-23T17:24:14.844Z,5.57
2022-08-23T17:26:41.871Z,6.53
2022-08-23T17:29:09.483Z,5.25
2022-08-23T17:31:37.809Z,5.68
2022-08-23T17:34:06.750Z,5.40
2022-08-23T17:36:48.112Z,6.00
2022-08-23T17:39:18.905Z,6.55
2022-08-23T17:41:46.681Z,5.30
2022-08-23T17:44:14.536Z,5.05
2022-08-23T17:46:44.259Z,5.43
2022-08-23T17:49:12.962Z,5.43
2022-08-23T17:51:41.165Z,5.90
2022-08-23T17:54:09.988Z,6.47
2022-08-23T17:56:37.944Z,5.75
2022-08-23T17:59:08.682Z,6.05
2022-08-23T18:01:35.943Z,5.35
2022-08-23T18:04:05.589Z,5.38
2022-08-23T18:06:33.631Z,5.75
2022-08-23T18:09:02.778Z,5.82
2022-08-23T18:11:31.806Z,4.47
2022-08-23T18:13:58.864Z,4.40
2022-08-23T18:16:33.145Z,4.80
2022-08-23T18:19:03.595Z,5.13
2022-08-23T18:21:30.871Z,5.50
2022-08-23T18:23:58.930Z,5.32
2022-08-23T18:26:44.982Z,5.10
2022-08-23T18:29:14.446Z,4.95
2022-08-23T18:31:43.870Z,5.15
2022-08-23T18:34:12.152Z,5.72
2022-08-23T18:36:39.697Z,5.53
2022-08-23T18:39:08.893Z,5.18
2022-08-23T18:41:36.582Z,4.88
2022-08-23T18:44:05.758Z,5.35
2022-08-23T18:46:36.518Z,5.55
2022-08-23T18:49:04.905Z,5.10
2022-08-23T18:51:31.956Z,4.80
2022-08-23T18:53:59.817Z,5.75
2022-08-23T18:56:26.946Z,5.55
2022-08-23T18:58:53.891Z,5.72
2022-08-23T19:01:30.228Z,6.15
2022-08-23T19:03:59.465Z,5.45
2022-08-23T19:06:27.922Z,5.35
2022-08-23T19:08:55.023Z,4.72
2022-08-23T19:11:23.164Z,5.60
2022-08-23T19:13:51.170Z,4.57
2022-08-23T19:16:20.257Z,5.45
2022-08-23T19:18:49.929Z,5.25
2022-08-23T19:21:20.656Z,5.03
2022-08-23T19:23:49.531Z,5.60
2022-08-23T19:26:18.853Z,5.47
2022-08-23T19:28:46.560Z,5.88
2022-08-23T19:31:14.239Z,4.65
2022-08-23T19:33:45.361Z,5.53
2022-08-23T19:36:29.313Z,5.22
2022-08-23T19:38:59.509Z,5.97
2022-08-23T19:41:26.713Z,5.70
2022-08-23T19:43:54.097Z,5.37
2022-08-23T19:46:21.309Z,5.65
2022-08-23T19:48:48.726Z,5.57
2022-08-23T19:51:19.725Z,6.30
2022-08-23T19:54:10.835Z,5.88
2022-08-23T19:56:39.170Z,5.75
2022-08-23T19:59:09.286Z,6.30
2022-08-23T20:01:37.141Z,5.97
2022-08-23T20:04:05.367Z,5.78
2022-08-23T20:06:33.389Z,5.63
2022-08-23T20:09:00.552Z,6.23
2022-08-23T20:11:28.125Z,5.23
2022-08-23T20:13:56.665Z,5.90
2022-08-23T20:16:26.734Z,5.90
2022-08-23T20:18:55.217Z,5.13
2022-08-23T20:21:23.940Z,6.07
2022-08-23T20:24:06.174Z,5.60
2022-08-23T20:26:35.063Z,5.93
2022-08-23T20:29:03.709Z,6.03
2022-08-23T20:31:37.219Z,5.17
2022-08-23T20:34:06.010Z,6.07
2022-08-23T20:36:33.570Z,6.13
2022-08-23T20:39:01.447Z,5.60
2022-08-23T20:41:33.529Z,5.32
2022-08-23T20:44:02.154Z,5.60
2022-08-23T20:46:29.774Z,5.43
2022-08-23T20:48:57.770Z,6.03
2022-08-23T20:51:26.088Z,5.73
2022-08-23T20:53:53.791Z,5.67
2022-08-23T20:56:23.833Z,6.40
2022-08-23T20:58:52.114Z,5.60
2022-08-23T21:01:19.366Z,6.00
2022-08-23T21:03:46.665Z,5.70
2022-08-23T21:06:22.660Z,5.97
2022-08-23T21:08:53.481Z,5.40
2022-08-23T21:11:22.450Z,5.07
2022-08-23T21:13:49.660Z,5.43
2022-08-23T21:16:18.164Z,5.80
2022-08-23T21:18:45.809Z,5.43
2022-08-23T21:21:13.120Z,5.50
2022-08-23T21:23:40.490Z,6.00
2022-08-23T21:26:07.957Z,5.73
2022-08-23T21:28:36.183Z,5.90
2022-08-23T21:31:16.369Z,5.73
2022-08-23T21:33:44.644Z,6.17
2022-08-23T21:36:13.260Z,6.03
2022-08-23T21:38:40.623Z,5.80
2022-08-23T21:41:11.275Z,5.60
2022-08-23T21:43:38.993Z,5.67
2022-08-23T21:46:07.360Z,5.63
2022-08-23T21:48:34.483Z,5.33
2022-08-23T21:51:01.981Z,5.30
2022-08-23T21:53:28.961Z,5.73
2022-08-23T21:55:55.852Z,5.47
2022-08-23T21:58:23.039Z,5.57
2022-08-23T22:00:50.541Z,5.93
2022-08-23T22:03:17.621Z,5.27
2022-08-23T22:05:46.140Z,5.43
2022-08-23T22:08:15.845Z,5.50
2022-08-23T22:10:56.784Z,5.17
2022-08-23T22:13:28.691Z,4.80
2022-08-23T22:15:56.336Z,6.03
2022-08-23T22:18:23.407Z,7.27
2022-08-23T22:20:50.558Z,10.17
2022-08-23T22:23:17.531Z,9.97
2022-08-23T22:25:44.920Z,8.50
2022-08-23T22:28:12.111Z,7.53
2022-08-23T22:30:42.236Z,6.70
2022-08-23T22:33:11.448Z,7.00
2022-08-23T22:35:39.118Z,7.30
2022-08-23T22:38:14.689Z,7.00
2022-08-23T22:40:52.442Z,7.17
2022-08-23T22:43:20.511Z,6.70
2022-08-23T22:45:55.055Z,6.93
2022-08-23T22:48:22.803Z,6.47
2022-08-23T22:50:50.249Z,6.83
2022-08-23T22:53:18.077Z,7.10
2022-08-23T22:55:50.369Z,5.50
2022-08-23T22:58:17.664Z,5.60
2022-08-23T23:00:45.311Z,7.20
2022-08-23T23:03:12.760Z,6.13
2022-08-23T23:05:40.205Z,6.77
2022-08-23T23:08:25.634Z,6.43
2022-08-23T23:11:02.844Z,6.33
2022-08-23T23:13:31.569Z,5.83
2022-08-23T23:16:02.356Z,5.27
2022-08-23T23:18:29.458Z,5.77
2022-08-23T23:21:01.796Z,5.80
2022-08-23T23:23:30.918Z,5.83
2022-08-23T23:25:58.412Z,5.50
2022-08-23T23:28:25.687Z,6.00
2022-08-23T23:30:55.181Z,5.93
2022-08-23T23:33:22.596Z,5.33
2022-08-23T23:35:51.691Z,5.47
2022-08-23T23:38:19.106Z,5.97
2022-08-23T23:40:46.680Z,5.30
2022-08-23T23:43:13.636Z,6.00
2022-08-23T23:45:41.651Z,5.37
2022-08-23T23:48:09.947Z,5.50
2022-08-23T23:50:41.561Z,5.67
2022-08-23T23:53:13.025Z,5.70
2022-08-23T23:55:40.336Z,5.90
2022-08-23T23:58:07.585Z,5.83
